createdAt,value
2023-02-27T00:01:09.604Z,103028.38
2023-02-27T00:04:02.051Z,103005.53
2023-02-27T00:06:51.304Z,103026.97
2023-02-27T00:09:42.882Z,103024.50
2023-02-27T00:12:37.710Z,103024.00
2023-02-27T00:15:31.014Z,103025.66
2023-02-27T00:18:24.161Z,103030.03
2023-02-27T00:21:13.398Z,103021.06
2023-02-27T00:24:02.564Z,103035.47
2023-02-27T00:26:53.963Z,103036.22
2023-02-27T00:29:49.762Z,103028.88
2023-02-27T00:32:39.462Z,103039.28
2023-02-27T00:36:02.039Z,103032.06
2023-02-27T00:38:51.443Z,103032.00
2023-02-27T00:41:40.658Z,103033.41
2023-02-27T00:44:30.283Z,103031.03
2023-02-27T00:47:19.664Z,103021.66
2023-02-27T00:50:10.800Z,103018.00
2023-02-27T00:53:01.582Z,103004.59
2023-02-27T00:55:51.012Z,103017.13
2023-02-27T00:58:40.210Z,103021.66
2023-02-27T01:01:31.192Z,103011.69
2023-02-27T01:04:20.729Z,103034.22
2023-02-27T01:07:10.589Z,103032.81
2023-02-27T01:10:11.872Z,103020.81
2023-02-27T01:13:01.582Z,103016.78
2023-02-27T01:15:51.317Z,103028.75
2023-02-27T01:18:40.782Z,103031.09
2023-02-27T01:21:29.936Z,103027.09
2023-02-27T01:24:20.000Z,103035.88
2023-02-27T01:27:12.109Z,103049.28
2023-02-27T01:30:01.422Z,103035.28
2023-02-27T01:32:50.576Z,103036.13
2023-02-27T01:35:40.677Z,103034.13
2023-02-27T01:38:29.847Z,103038.66
2023-02-27T01:41:19.530Z,103029.53
2023-02-27T01:44:13.663Z,103030.50
2023-02-27T01:47:03.136Z,103039.75
2023-02-27T01:49:54.114Z,103040.72
2023-02-27T01:52:45.466Z,103040.38
2023-02-27T01:55:39.763Z,103042.44
2023-02-27T01:58:29.900Z,103037.47
2023-02-27T02:01:21.867Z,103038.06
2023-02-27T02:04:21.008Z,103037.97
2023-02-27T02:07:16.773Z,103033.09
2023-02-27T02:10:08.031Z,103033.38
2023-02-27T02:12:57.678Z,103029.81
2023-02-27T02:16:13.857Z,103025.19
2023-02-27T02:19:54.494Z,103038.91
2023-02-27T02:23:52.147Z,103031.81
2023-02-27T02:27:04.937Z,103027.56
2023-02-27T02:30:54.027Z,103025.50
2023-02-27T02:34:19.042Z,103037.97
2023-02-27T02:37:59.293Z,103037.84
2023-02-27T02:40:56.021Z,103041.06
2023-02-27T02:44:00.887Z,103040.22
2023-02-27T02:46:57.914Z,103038.22
2023-02-27T02:49:58.261Z,103041.03
2023-02-27T02:53:02.669Z,103038.91
2023-02-27T02:56:01.555Z,103031.31
2023-02-27T02:59:00.825Z,103032.72
2023-02-27T03:01:55.218Z,103032.03
2023-02-27T03:04:50.602Z,103041.72
2023-02-27T03:07:45.584Z,103042.69
2023-02-27T03:10:39.117Z,103047.81
2023-02-27T03:13:35.944Z,103039.38
2023-02-27T03:16:31.207Z,103016.19
2023-02-27T03:19:27.013Z,103033.47
2023-02-27T03:22:23.285Z,103025.78
2023-02-27T03:25:15.413Z,103032.03
2023-02-27T03:28:15.501Z,103042.94
2023-02-27T03:31:15.256Z,103044.47
2023-02-27T03:34:14.541Z,103047.31
2023-02-27T03:37:14.524Z,103052.06
2023-02-27T03:40:18.631Z,103042.31
2023-02-27T03:43:18.558Z,103040.09
2023-02-27T03:46:19.589Z,103037.94
2023-02-27T03:49:09.490Z,103046.13
2023-02-27T03:51:59.283Z,103049.94
2023-02-27T03:54:56.036Z,103036.19
2023-02-27T03:57:47.869Z,103054.44
2023-02-27T04:00:37.513Z,103046.50
2023-02-27T04:03:29.049Z,103055.25
2023-02-27T04:06:36.140Z,103050.88
2023-02-27T04:09:44.467Z,103046.03
2023-02-27T04:13:38.725Z,103045.81
2023-02-27T04:17:05.373Z,103040.94
2023-02-27T04:20:24.029Z,103041.66
2023-02-27T04:23:20.780Z,103024.22
2023-02-27T04:26:22.777Z,103038.09
2023-02-27T04:29:18.698Z,103041.91
2023-02-27T04:32:17.834Z,103039.41
2023-02-27T04:35:16.942Z,103043.59
2023-02-27T04:38:15.465Z,103056.88
2023-02-27T04:41:10.104Z,103057.81
2023-02-27T04:44:00.432Z,103056.41
2023-02-27T04:46:51.806Z,103041.81
2023-02-27T04:49:47.050Z,103051.28
2023-02-27T04:52:42.779Z,103057.31
2023-02-27T04:55:36.512Z,103064.53
2023-02-27T04:58:30.874Z,103066.56
2023-02-27T05:01:26.792Z,103067.88
2023-02-27T05:04:21.130Z,103060.38
2023-02-27T05:07:15.968Z,103071.28
2023-02-27T05:10:13.799Z,103067.13
2023-02-27T05:13:11.513Z,103071.75
2023-02-27T05:16:09.591Z,103065.00
2023-02-27T05:18:58.818Z,103069.03
2023-02-27T05:21:57.133Z,103072.47
2023-02-27T05:24:55.108Z,103064.31
2023-02-27T05:27:51.285Z,103078.44
2023-02-27T05:30:46.956Z,103073.16
2023-02-27T05:33:42.013Z,103074.94
2023-02-27T05:36:36.132Z,103058.94
2023-02-27T05:39:30.052Z,103051.13
2023-02-27T05:42:27.068Z,103072.91
2023-02-27T05:45:23.708Z,103066.28
2023-02-27T05:48:19.858Z,103071.38
2023-02-27T05:51:12.430Z,103070.44
2023-02-27T05:54:08.345Z,103047.69
2023-02-27T05:57:00.968Z,103053.47
2023-02-27T06:00:00.766Z,103062.72
2023-02-27T06:02:51.459Z,103048.38
2023-02-27T06:05:43.486Z,103062.13
2023-02-27T06:08:32.764Z,103060.13
2023-02-27T06:11:21.979Z,103064.66
2023-02-27T06:14:11.134Z,103066.06
2023-02-27T06:17:00.481Z,103056.22
2023-02-27T06:19:51.176Z,103055.63
2023-02-27T06:22:50.280Z,103056.47
2023-02-27T06:25:40.194Z,103040.94
2023-02-27T06:28:29.605Z,103032.03
2023-02-27T06:31:21.830Z,103041.03
2023-02-27T06:34:11.137Z,103049.22
2023-02-27T06:37:04.161Z,103048.38
2023-02-27T06:39:53.644Z,103041.78
2023-02-27T06:42:44.312Z,103061.31
2023-02-27T06:45:33.540Z,103060.50
2023-02-27T06:48:22.749Z,103056.34
2023-02-27T06:51:12.250Z,103071.72
2023-02-27T06:54:10.847Z,103054.44
2023-02-27T06:57:07.308Z,103060.34
2023-02-27T06:59:59.724Z,103066.53
2023-02-27T07:02:49.034Z,103071.38
2023-02-27T07:05:38.322Z,103078.50
2023-02-27T07:08:27.668Z,103079.56
2023-02-27T07:11:21.062Z,103071.38
2023-02-27T07:14:10.499Z,103072.81
2023-02-27T07:17:03.430Z,103073.75
2023-02-27T07:19:52.748Z,103081.44
2023-02-27T07:22:42.829Z,103066.66
2023-02-27T07:25:32.136Z,103078.13
2023-02-27T07:28:25.335Z,103085.97
2023-02-27T07:31:15.095Z,103083.34
2023-02-27T07:34:04.834Z,103077.56
2023-02-27T07:36:54.020Z,103090.00
2023-02-27T07:39:43.466Z,103091.78
2023-02-27T07:42:32.890Z,103102.06
2023-02-27T07:45:27.942Z,103095.34
2023-02-27T07:48:17.279Z,103107.28
2023-02-27T07:51:07.451Z,103107.75
2023-02-27T07:53:58.982Z,103100.16
2023-02-27T07:56:48.431Z,103083.59
2023-02-27T07:59:41.325Z,103100.66
2023-02-27T08:02:38.513Z,103103.38
2023-02-27T08:05:29.809Z,103105.38
2023-02-27T08:08:19.036Z,103117.34
2023-02-27T08:11:11.047Z,103094.63
2023-02-27T08:14:01.784Z,103117.81
2023-02-27T08:16:51.573Z,103121.03
2023-02-27T08:19:42.329Z,103119.72
2023-02-27T08:22:32.711Z,103120.47
2023-02-27T08:25:25.291Z,103127.44
2023-02-27T08:28:14.680Z,103132.91
2023-02-27T08:31:03.931Z,103130.03
2023-02-27T08:34:01.011Z,103129.22
2023-02-27T08:36:55.923Z,103135.88
2023-02-27T08:39:45.184Z,103136.22
2023-02-27T08:42:34.757Z,103145.56
2023-02-27T08:45:24.171Z,103133.25
2023-02-27T08:48:15.931Z,103139.28
2023-02-27T08:51:05.338Z,103134.56
2023-02-27T08:53:58.971Z,103149.59
2023-02-27T08:56:49.058Z,103141.09
2023-02-27T08:59:38.236Z,103144.06
2023-02-27T09:02:31.522Z,103149.34
2023-02-27T09:05:23.010Z,103144.97
2023-02-27T09:08:12.226Z,103143.69
2023-02-27T09:11:03.133Z,103148.78
2023-02-27T09:13:53.030Z,103157.78
2023-02-27T09:16:42.454Z,103157.78
2023-02-27T09:19:32.055Z,103162.91
2023-02-27T09:22:21.436Z,103164.06
2023-02-27T09:25:11.237Z,103167.16
2023-02-27T09:28:01.905Z,103168.81
2023-02-27T09:30:51.255Z,103173.09
2023-02-27T09:33:40.727Z,103169.75
2023-02-27T09:36:30.475Z,103174.97
2023-02-27T09:39:19.870Z,103179.56
2023-02-27T09:42:18.071Z,103177.03
2023-02-27T09:45:17.705Z,103168.97
2023-02-27T09:48:17.076Z,103178.69
2023-02-27T09:51:06.906Z,103176.78
2023-02-27T09:54:00.882Z,103184.63
2023-02-27T09:56:55.641Z,103175.81
2023-02-27T09:59:50.638Z,103167.38
2023-02-27T10:02:55.672Z,103186.22
2023-02-27T10:05:52.655Z,103180.44
2023-02-27T10:08:53.671Z,103187.44
2023-02-27T10:11:58.481Z,103191.91
2023-02-27T10:14:51.668Z,103200.00
2023-02-27T10:17:43.251Z,103186.78
2023-02-27T10:20:38.497Z,103204.34
2023-02-27T10:23:38.630Z,103190.81
2023-02-27T10:26:33.121Z,103188.72
2023-02-27T10:29:30.740Z,103186.47
2023-02-27T10:32:24.099Z,103189.94
2023-02-27T10:35:31.315Z,103184.47
2023-02-27T10:38:33.242Z,103185.91
2023-02-27T10:41:24.297Z,103198.03
2023-02-27T10:44:18.766Z,103185.97
2023-02-27T10:47:08.053Z,103195.47
2023-02-27T10:50:00.360Z,103208.41
2023-02-27T10:52:54.583Z,103204.63
2023-02-27T10:55:58.666Z,103201.41
2023-02-27T10:58:48.253Z,103207.94
2023-02-27T11:01:46.057Z,103212.47
2023-02-27T11:04:38.650Z,103213.16
2023-02-27T11:07:32.472Z,103202.84
2023-02-27T11:10:24.460Z,103208.03
2023-02-27T11:13:22.805Z,103215.88
2023-02-27T11:16:15.871Z,103214.91
2023-02-27T11:19:24.871Z,103213.00
2023-02-27T11:22:18.722Z,103208.72
2023-02-27T11:25:24.504Z,103202.13
2023-02-27T11:28:23.816Z,103202.78
2023-02-27T11:31:20.397Z,103190.94
2023-02-27T11:34:20.608Z,103195.69
2023-02-27T11:37:23.480Z,103212.78
2023-02-27T11:40:19.597Z,103201.78
2023-02-27T11:43:21.224Z,103198.84
2023-02-27T11:46:46.627Z,103202.44
2023-02-27T11:49:34.921Z,103210.53
2023-02-27T11:52:33.274Z,103209.59
2023-02-27T11:55:28.036Z,103198.34
2023-02-27T11:58:23.233Z,103191.94
2023-02-27T12:01:24.993Z,103195.78
2023-02-27T12:04:22.094Z,103207.41
2023-02-27T12:07:22.212Z,103192.25
2023-02-27T12:10:19.755Z,103187.44
2023-02-27T12:13:18.028Z,103193.44
2023-02-27T12:16:18.693Z,103189.97
2023-02-27T12:19:17.508Z,103188.31
2023-02-27T12:22:14.851Z,103179.63
2023-02-27T12:25:12.092Z,103190.22
2023-02-27T12:28:10.000Z,103190.47
2023-02-27T12:31:32.428Z,103194.41
2023-02-27T12:34:29.460Z,103185.69
2023-02-27T12:37:24.912Z,103188.53
2023-02-27T12:40:18.622Z,103185.13
2023-02-27T12:43:28.283Z,103174.88
2023-02-27T12:46:36.971Z,103175.28
2023-02-27T12:49:40.567Z,103185.44
2023-02-27T12:52:46.313Z,103171.72
2023-02-27T12:55:42.877Z,103172.81
2023-02-27T12:58:43.732Z,103173.91
2023-02-27T13:01:47.709Z,103169.16
2023-02-27T13:04:47.263Z,103181.84
2023-02-27T13:07:46.386Z,103173.00
2023-02-27T13:10:43.163Z,103177.69
2023-02-27T13:13:39.946Z,103173.63
2023-02-27T13:16:36.728Z,103174.66
2023-02-27T13:19:33.480Z,103164.94
2023-02-27T13:22:37.558Z,103176.13
2023-02-27T13:25:28.001Z,103183.19
2023-02-27T13:28:21.247Z,103171.97
2023-02-27T13:31:24.502Z,103173.00
2023-02-27T13:34:25.424Z,103171.94
2023-02-27T13:37:16.232Z,103170.53
2023-02-27T13:40:30.973Z,103171.53
2023-02-27T13:43:46.492Z,103163.63
2023-02-27T13:46:40.570Z,103188.22
2023-02-27T13:49:31.351Z,103164.81
2023-02-27T13:52:30.477Z,103185.09
2023-02-27T13:55:31.202Z,103183.13
2023-02-27T13:58:25.546Z,103197.13
2023-02-27T14:01:23.805Z,103192.91
2023-02-27T14:04:19.940Z,103204.97
2023-02-27T14:07:15.278Z,103187.97
2023-02-27T14:10:11.659Z,103164.97
2023-02-27T14:13:03.755Z,103188.69
2023-02-27T14:16:00.441Z,103177.88
2023-02-27T14:18:57.768Z,103177.31
2023-02-27T14:22:01.259Z,103183.25
2023-02-27T14:25:03.667Z,103179.53
2023-02-27T14:27:59.041Z,103168.09
2023-02-27T14:30:55.601Z,103172.13
2023-02-27T14:33:50.862Z,103174.63
2023-02-27T14:36:47.634Z,103174.19
2023-02-27T14:39:39.407Z,103152.59
2023-02-27T14:42:46.047Z,103166.16
2023-02-27T14:45:36.945Z,103176.50
2023-02-27T14:48:29.964Z,103175.50
2023-02-27T14:51:19.701Z,103171.16
2023-02-27T14:54:16.481Z,103166.53
2023-02-27T14:57:08.487Z,103165.13
2023-02-27T14:59:57.819Z,103173.22
2023-02-27T15:02:48.472Z,103169.50
2023-02-27T15:05:39.522Z,103155.00
2023-02-27T15:08:33.310Z,103146.81
2023-02-27T15:11:24.604Z,103152.41
2023-02-27T15:14:22.630Z,103150.34
2023-02-27T15:17:24.243Z,103154.56
2023-02-27T15:20:30.011Z,103134.94
2023-02-27T15:23:26.980Z,103150.03
2023-02-27T15:26:16.275Z,103158.13
2023-02-27T15:29:08.183Z,103157.56
2023-02-27T15:31:57.435Z,103161.03
2023-02-27T15:34:48.141Z,103163.47
2023-02-27T15:37:40.170Z,103161.03
2023-02-27T15:40:31.969Z,103150.59
2023-02-27T15:43:22.973Z,103155.81
2023-02-27T15:46:12.304Z,103164.69
2023-02-27T15:49:01.678Z,103152.25
2023-02-27T15:52:01.484Z,103149.16
2023-02-27T15:54:54.824Z,103151.13
2023-02-27T15:58:00.762Z,103154.38
2023-02-27T16:01:00.871Z,103155.78
2023-02-27T16:03:53.590Z,103156.59
2023-02-27T16:06:48.680Z,103162.31
2023-02-27T16:09:39.260Z,103159.69
2023-02-27T16:12:36.951Z,103159.09
2023-02-27T16:15:32.558Z,103164.75
2023-02-27T16:18:31.901Z,103166.97
2023-02-27T16:21:22.971Z,103165.47
2023-02-27T16:24:22.926Z,103155.47
2023-02-27T16:27:20.907Z,103161.50
2023-02-27T16:30:17.233Z,103145.59
2023-02-27T16:33:06.846Z,103160.84
2023-02-27T16:36:16.947Z,103147.81
2023-02-27T16:39:08.468Z,103155.72
2023-02-27T16:41:59.951Z,103150.41
2023-02-27T16:44:49.190Z,103143.19
2023-02-27T16:47:39.836Z,103145.59
2023-02-27T16:50:32.927Z,103142.19
2023-02-27T16:53:22.362Z,103148.00
2023-02-27T16:56:13.094Z,103155.13
2023-02-27T16:59:03.651Z,103155.59
2023-02-27T17:01:53.378Z,103152.66
2023-02-27T17:04:47.718Z,103148.88
2023-02-27T17:07:37.672Z,103149.28
2023-02-27T17:10:27.396Z,103154.00
2023-02-27T17:13:17.420Z,103147.38
2023-02-27T17:16:08.445Z,103149.84
2023-02-27T17:18:57.646Z,103160.69
2023-02-27T17:21:48.292Z,103149.41
2023-02-27T17:24:38.784Z,103142.94
2023-02-27T17:27:28.162Z,103147.31
2023-02-27T17:30:18.755Z,103154.09
2023-02-27T17:33:08.131Z,103142.59
2023-02-27T17:36:03.723Z,103126.25
2023-02-27T17:38:57.896Z,103139.19
2023-02-27T17:41:48.265Z,103133.84
2023-02-27T17:44:37.896Z,103146.53
2023-02-27T17:47:27.178Z,103146.53
2023-02-27T17:50:17.036Z,103155.19
2023-02-27T17:53:06.277Z,103149.41
2023-02-27T17:55:56.945Z,103151.56
2023-02-27T17:58:46.227Z,103132.22
2023-02-27T18:01:36.817Z,103157.47
2023-02-27T18:04:26.382Z,103159.97
2023-02-27T18:07:15.646Z,103166.25
2023-02-27T18:10:06.602Z,103165.41
2023-02-27T18:12:57.243Z,103173.59
2023-02-27T18:15:47.507Z,103160.34
2023-02-27T18:18:37.679Z,103172.19
2023-02-27T18:21:27.293Z,103179.19
2023-02-27T18:24:17.845Z,103164.03
2023-02-27T18:27:07.069Z,103185.59
2023-02-27T18:29:59.438Z,103178.84
2023-02-27T18:32:48.797Z,103182.41
2023-02-27T18:35:38.181Z,103172.94
2023-02-27T18:38:28.086Z,103186.59
2023-02-27T18:41:17.375Z,103180.88
2023-02-27T18:44:08.067Z,103183.13
2023-02-27T18:46:58.744Z,103180.88
2023-02-27T18:49:48.193Z,103179.56
2023-02-27T18:52:38.613Z,103188.56
2023-02-27T18:55:28.624Z,103180.25
2023-02-27T18:58:17.837Z,103178.72
2023-02-27T19:01:08.104Z,103194.16
2023-02-27T19:04:03.918Z,103194.97
2023-02-27T19:06:53.515Z,103195.06
2023-02-27T19:09:43.189Z,103189.59
2023-02-27T19:12:32.686Z,103195.91
2023-02-27T19:15:22.014Z,103195.44
2023-02-27T19:18:11.300Z,103187.81
2023-02-27T19:21:06.749Z,103195.56
2023-02-27T19:23:56.530Z,103201.22
2023-02-27T19:26:47.291Z,103197.66
2023-02-27T19:29:36.644Z,103194.13
2023-02-27T19:32:26.019Z,103194.34
2023-02-27T19:35:17.899Z,103181.41
2023-02-27T19:38:08.668Z,103201.72
2023-02-27T19:41:03.315Z,103195.31
2023-02-27T19:43:53.665Z,103188.78
2023-02-27T19:46:43.618Z,103205.28
2023-02-27T19:49:33.544Z,103202.78
2023-02-27T19:52:22.995Z,103212.88
2023-02-27T19:55:13.991Z,103204.94
2023-02-27T19:58:03.304Z,103213.81
2023-02-27T20:00:52.711Z,103186.66
2023-02-27T20:03:43.812Z,103201.28
2023-02-27T20:06:42.367Z,103214.31
2023-02-27T20:09:34.523Z,103216.56
2023-02-27T20:12:26.880Z,103218.59
2023-02-27T20:15:16.271Z,103217.41
2023-02-27T20:18:05.654Z,103218.47
2023-02-27T20:21:03.729Z,103208.97
2023-02-27T20:23:53.534Z,103210.97
2023-02-27T20:26:46.191Z,103224.16
2023-02-27T20:29:37.088Z,103214.31
2023-02-27T20:32:26.840Z,103217.84
2023-02-27T20:35:16.999Z,103226.03
2023-02-27T20:38:06.854Z,103231.75
2023-02-27T20:40:59.222Z,103221.78
2023-02-27T20:43:48.442Z,103228.91
2023-02-27T20:46:41.586Z,103234.97
2023-02-27T20:49:30.529Z,103242.09
2023-02-27T20:52:19.760Z,103242.91
2023-02-27T20:55:10.330Z,103249.22
2023-02-27T20:57:59.756Z,103242.22
2023-02-27T21:00:48.964Z,103245.91
2023-02-27T21:03:42.478Z,103238.91
2023-02-27T21:06:32.312Z,103246.84
2023-02-27T21:09:22.390Z,103237.94
2023-02-27T21:12:12.767Z,103240.81
2023-02-27T21:15:01.983Z,103248.75
2023-02-27T21:17:51.330Z,103230.34
2023-02-27T21:20:43.746Z,103249.66
2023-02-27T21:23:33.933Z,103239.81
2023-02-27T21:26:26.326Z,103248.25
2023-02-27T21:29:19.019Z,103244.91
2023-02-27T21:32:08.362Z,103239.22
2023-02-27T21:34:57.722Z,103247.44
2023-02-27T21:37:49.243Z,103240.66
2023-02-27T21:40:38.537Z,103252.72
2023-02-27T21:43:27.838Z,103244.06
2023-02-27T21:46:17.327Z,103237.41
2023-02-27T21:49:06.996Z,103249.28
2023-02-27T21:51:57.160Z,103242.16
2023-02-27T21:54:47.870Z,103249.53
2023-02-27T21:57:38.256Z,103248.47
2023-02-27T22:00:29.421Z,103252.72
2023-02-27T22:03:19.074Z,103247.88
2023-02-27T22:06:09.342Z,103258.56
2023-02-27T22:09:01.448Z,103255.47
2023-02-27T22:11:52.187Z,103259.75
2023-02-27T22:14:43.413Z,103260.34
2023-02-27T22:17:32.774Z,103260.91
2023-02-27T22:20:22.341Z,103255.72
2023-02-27T22:23:11.696Z,103263.66
2023-02-27T22:26:02.483Z,103250.38
2023-02-27T22:28:55.801Z,103266.38
2023-02-27T22:31:45.994Z,103264.16
2023-02-27T22:34:35.613Z,103260.00
2023-02-27T22:37:25.403Z,103262.56
2023-02-27T22:40:16.490Z,103274.13
2023-02-27T22:43:06.214Z,103275.19
2023-02-27T22:45:58.308Z,103265.31
2023-02-27T22:48:47.501Z,103243.63
2023-02-27T22:51:37.324Z,103267.00
2023-02-27T22:54:26.490Z,103267.47
2023-02-27T22:57:15.876Z,103268.16
2023-02-27T23:00:07.130Z,103265.44
2023-02-27T23:02:57.849Z,103267.66
2023-02-27T23:05:48.034Z,103243.63
2023-02-27T23:08:38.172Z,103258.31
2023-02-27T23:11:28.152Z,103268.66
2023-02-27T23:14:18.044Z,103269.47
2023-02-27T23:17:07.359Z,103270.66
2023-02-27T23:19:58.075Z,103270.31
2023-02-27T23:22:47.613Z,103269.34
2023-02-27T23:25:38.931Z,103267.09
2023-02-27T23:28:28.217Z,103273.13
2023-02-27T23:31:17.978Z,103267.09
2023-02-27T23:34:08.113Z,103263.78
2023-02-27T23:36:58.718Z,103266.38
2023-02-27T23:39:47.998Z,103278.00
2023-02-27T23:42:37.205Z,103277.56
2023-02-27T23:45:26.596Z,103284.66
2023-02-27T23:48:15.915Z,103275.53
2023-02-27T23:51:07.972Z,103284.53
2023-02-27T23:53:58.706Z,103279.66
2023-02-27T23:56:49.436Z,103281.31
2023-02-27T23:59:38.777Z,103281.81
